createdAt,value
2017-02-27T00:00:01.694Z,22.39
2017-02-27T00:01:01.313Z,22.39
2017-02-27T00:02:01.731Z,22.3
2017-02-27T00:03:01.392Z,22.3
2017-02-27T00:04:01.798Z,22.3
2017-02-27T00:05:01.822Z,22.3
2017-02-27T00:06:01.850Z,22.25
2017-02-27T00:07:01.875Z,22.37
2017-02-27T00:08:01.521Z,22.28
2017-02-27T00:09:01.933Z,22.31
2017-02-27T00:10:01.165Z,22.31
2017-02-27T00:11:01.190Z,22.31
2017-02-27T00:12:02.007Z,22.25
2017-02-27T00:13:02.050Z,22.3
2017-02-27T00:14:02.068Z,22.28
2017-02-27T00:15:01.704Z,22.28
2017-02-27T00:16:01.741Z,22.3
2017-02-27T00:17:01.750Z,22.27
2017-02-27T00:18:02.171Z,22.33
2017-02-27T00:19:02.212Z,22.35
2017-02-27T00:20:01.832Z,22.27
2017-02-27T00:21:02.270Z,22.27
2017-02-27T00:22:02.290Z,22.25
2017-02-27T00:23:01.526Z,22.27
2017-02-27T00:24:02.200Z,22.31
2017-02-27T00:25:02.377Z,22.27
2017-02-27T00:26:02.009Z,22.24
2017-02-27T00:27:02.446Z,22.3
2017-02-27T00:28:02.067Z,22.24
2017-02-27T00:29:02.608Z,22.27
2017-02-27T00:30:02.520Z,22.21
2017-02-27T00:31:02.545Z,22.21
2017-02-27T00:32:02.573Z,22.2
2017-02-27T00:33:01.810Z,22.22
2017-02-27T00:34:02.340Z,22.15
2017-02-27T00:35:01.873Z,22.2
2017-02-27T00:36:02.283Z,22.18
2017-02-27T00:37:02.313Z,22.14
2017-02-27T00:38:02.351Z,22.17
2017-02-27T00:39:02.240Z,22.14
2017-02-27T00:40:02.791Z,22.15
2017-02-27T00:41:02.436Z,22.24
2017-02-27T00:42:02.450Z,22.06
2017-02-27T00:43:02.498Z,22.1
2017-02-27T00:44:03.164Z,22.1
2017-02-27T00:45:02.938Z,22.17
2017-02-27T00:46:02.572Z,22.14
2017-02-27T00:47:02.184Z,22.1
2017-02-27T00:48:03.025Z,22.07
2017-02-27T00:49:03.290Z,22.14
2017-02-27T00:50:03.079Z,22.14
2017-02-27T00:51:03.103Z,22.14
2017-02-27T00:52:02.728Z,22.14
2017-02-27T00:53:02.766Z,22.12
2017-02-27T00:54:03.441Z,22.09
2017-02-27T00:55:02.815Z,22.14
2017-02-27T00:56:03.239Z,22.06
2017-02-27T00:57:02.864Z,22.05
2017-02-27T00:58:03.288Z,22.09
2017-02-27T00:59:03.590Z,22.09
2017-02-27T01:00:03.345Z,22.07
2017-02-27T01:01:02.980Z,21.99
2017-02-27T01:02:03.012Z,22.09
2017-02-27T01:03:03.041Z,22.07
2017-02-27T01:04:03.321Z,22.09
2017-02-27T01:05:03.500Z,22.02
2017-02-27T01:06:03.123Z,22.06
2017-02-27T01:07:02.753Z,22.06
2017-02-27T01:08:03.577Z,21.98
2017-02-27T01:09:03.853Z,22.09
2017-02-27T01:10:03.257Z,22.12
2017-02-27T01:11:03.265Z,22.05
2017-02-27T01:12:03.675Z,22.1
2017-02-27T01:13:03.373Z,21.98
2017-02-27T01:14:03.601Z,22.03
2017-02-27T01:15:03.380Z,22.06
2017-02-27T01:16:03.403Z,21.99
2017-02-27T01:17:03.423Z,22
2017-02-27T01:18:03.464Z,22
2017-02-27T01:19:03.600Z,22
2017-02-27T01:20:03.518Z,21.92
2017-02-27T01:21:03.542Z,22.03
2017-02-27T01:22:03.971Z,22.02
2017-02-27T01:23:03.592Z,21.9
2017-02-27T01:24:03.885Z,22
2017-02-27T01:25:04.045Z,21.84
2017-02-27T01:26:03.682Z,21.91
2017-02-27T01:27:03.695Z,21.91
2017-02-27T01:28:03.736Z,21.96
2017-02-27T01:29:04.032Z,21.86
2017-02-27T01:30:03.804Z,21.96
2017-02-27T01:31:03.810Z,21.98
2017-02-27T01:32:03.839Z,21.98
2017-02-27T01:33:03.884Z,21.98
2017-02-27T01:34:04.112Z,21.92
2017-02-27T01:38:18.143Z,21.75
2017-02-27T01:52:48.802Z,21.84
2017-02-27T01:53:48.823Z,21.91
2017-02-27T01:54:48.460Z,21.84
2017-02-27T01:55:48.872Z,21.82
2017-02-27T01:56:48.754Z,21.8
2017-02-27T01:57:48.546Z,21.75
2017-02-27T01:58:48.563Z,21.8
2017-02-27T01:59:48.990Z,21.75
2017-02-27T02:00:49.021Z,21.79
2017-02-27T02:01:49.294Z,21.84
2017-02-27T02:02:49.478Z,21.79
2017-02-27T02:03:49.108Z,21.83
2017-02-27T02:04:49.519Z,21.8
2017-02-27T02:05:48.764Z,21.77
2017-02-27T02:06:49.033Z,21.82
2017-02-27T02:07:49.222Z,21.77
2017-02-27T02:08:49.239Z,21.79
2017-02-27T02:09:49.263Z,21.75
2017-02-27T02:10:49.289Z,21.74
2017-02-27T02:11:49.169Z,21.83
2017-02-27T02:12:49.742Z,21.71
2017-02-27T02:13:49.386Z,21.74
2017-02-27T02:14:49.803Z,21.75
2017-02-27T02:15:49.833Z,21.77
2017-02-27T02:16:49.722Z,21.77
2017-02-27T02:17:49.525Z,21.74
2017-02-27T02:18:49.526Z,21.8
2017-02-27T02:19:49.539Z,21.75
2017-02-27T02:20:49.584Z,21.69
2017-02-27T02:21:49.845Z,21.68
2017-02-27T02:22:49.229Z,21.69
2017-02-27T02:23:50.054Z,21.72
2017-02-27T02:24:49.688Z,21.74
2017-02-27T02:25:49.308Z,21.69
2017-02-27T02:26:49.991Z,21.71
2017-02-27T02:27:49.782Z,21.65
2017-02-27T02:28:50.183Z,21.72
2017-02-27T02:29:49.827Z,21.74
2017-02-27T02:30:50.252Z,21.65
2017-02-27T02:31:50.524Z,21.69
2017-02-27T02:32:50.293Z,21.71
2017-02-27T02:33:50.329Z,21.74
2017-02-27T02:34:50.364Z,21.67
2017-02-27T02:35:50.371Z,21.72
2017-02-27T02:36:50.264Z,21.71
2017-02-27T02:37:50.453Z,21.64
2017-02-27T02:38:50.454Z,21.69
2017-02-27T02:39:50.095Z,21.65
2017-02-27T02:40:50.515Z,21.67
2017-02-27T02:41:50.799Z,21.67
2017-02-27T02:42:50.570Z,21.64
2017-02-27T02:43:50.598Z,21.62
2017-02-27T02:44:50.243Z,21.67
2017-02-27T02:45:50.255Z,21.71
2017-02-27T02:46:50.696Z,21.56
2017-02-27T02:47:50.313Z,21.56
2017-02-27T02:48:50.341Z,21.61
2017-02-27T02:49:50.399Z,21.59
2017-02-27T02:50:49.999Z,21.62
2017-02-27T02:51:50.820Z,21.68
2017-02-27T02:52:50.457Z,21.64
2017-02-27T02:53:50.490Z,21.56
2017-02-27T02:54:50.507Z,21.59
2017-02-27T02:55:50.931Z,21.62
2017-02-27T02:56:50.952Z,21.62
2017-02-27T02:57:50.206Z,21.62
2017-02-27T02:58:50.612Z,21.54
2017-02-27T02:59:50.646Z,21.61
2017-02-27T03:00:50.271Z,21.56
2017-02-27T03:01:50.702Z,21.54
2017-02-27T03:02:50.724Z,21.59
2017-02-27T03:03:50.753Z,21.58
2017-02-27T03:04:50.382Z,21.58
2017-02-27T03:05:50.814Z,21.58
2017-02-27T03:06:50.848Z,21.53
2017-02-27T03:07:51.256Z,21.59
2017-02-27T03:08:50.897Z,21.65
2017-02-27T03:09:51.308Z,21.53
2017-02-27T03:10:51.338Z,21.61
2017-02-27T03:11:51.377Z,21.53
2017-02-27T03:12:51.000Z,21.59
2017-02-27T03:13:51.032Z,21.53
2017-02-27T03:14:51.052Z,21.56
2017-02-27T03:15:51.102Z,21.58
2017-02-27T03:16:51.115Z,21.61
2017-02-27T03:17:50.760Z,21.59
2017-02-27T03:18:50.776Z,21.62
2017-02-27T03:19:51.584Z,21.56
2017-02-27T03:20:51.617Z,21.5
2017-02-27T03:21:51.654Z,21.49
2017-02-27T03:22:51.279Z,21.46
2017-02-27T03:23:50.910Z,21.47
2017-02-27T03:24:51.328Z,21.46
2017-02-27T03:25:50.964Z,21.53
2017-02-27T03:26:51.001Z,21.47
2017-02-27T03:27:51.655Z,21.44
2017-02-27T03:28:51.842Z,21.53
2017-02-27T03:29:51.490Z,21.49
2017-02-27T03:30:51.893Z,21.49
2017-02-27T03:31:51.121Z,21.5
2017-02-27T03:32:51.403Z,21.5
2017-02-27T03:33:51.970Z,21.46
2017-02-27T03:34:51.990Z,21.46
2017-02-27T03:35:52.023Z,21.47
2017-02-27T03:36:52.051Z,21.43
2017-02-27T03:37:51.938Z,21.47
2017-02-27T03:38:52.106Z,21.43
2017-02-27T03:39:52.134Z,21.43
2017-02-27T03:40:51.360Z,21.47
2017-02-27T03:41:51.801Z,21.47
2017-02-27T03:42:52.477Z,21.49
2017-02-27T03:43:52.242Z,21.42
2017-02-27T03:44:52.268Z,21.42
2017-02-27T03:45:51.908Z,21.43
2017-02-27T03:46:51.945Z,21.43
2017-02-27T03:47:52.216Z,21.43
2017-02-27T03:48:52.386Z,21.46
2017-02-27T03:49:52.394Z,21.42
2017-02-27T03:50:51.660Z,21.42
2017-02-27T03:51:51.672Z,21.38
2017-02-27T03:52:52.349Z,21.37
2017-02-27T03:53:52.126Z,21.4
2017-02-27T03:54:52.543Z,21.37
2017-02-27T03:55:52.179Z,21.35
2017-02-27T03:56:52.208Z,21.34
2017-02-27T03:57:52.505Z,21.37
2017-02-27T03:58:52.270Z,21.34
2017-02-27T03:59:52.283Z,21.37
2017-02-27T04:00:52.715Z,21.31
2017-02-27T04:01:52.341Z,21.43
2017-02-27T04:02:52.617Z,21.37
2017-02-27T04:03:52.801Z,21.38
2017-02-27T04:04:52.821Z,21.4
2017-02-27T04:05:52.458Z,21.42
2017-02-27T04:06:52.872Z,21.35
2017-02-27T04:07:53.001Z,21.35
2017-02-27T04:08:52.536Z,21.37
2017-02-27T04:09:52.561Z,21.37
2017-02-27T04:10:52.979Z,21.4
2017-02-27T04:11:53.012Z,21.37
2017-02-27T04:12:52.897Z,21.35
2017-02-27T04:13:52.668Z,21.37
2017-02-27T04:14:52.688Z,21.38
2017-02-27T04:15:52.719Z,21.37
2017-02-27T04:16:52.765Z,21.38
2017-02-27T04:17:52.631Z,21.31
2017-02-27T04:18:52.804Z,21.37
2017-02-27T04:19:53.230Z,21.38
2017-02-27T04:20:52.858Z,21.43
2017-02-27T04:21:53.287Z,21.35
2017-02-27T04:22:53.563Z,21.37
2017-02-27T04:23:52.936Z,21.29
2017-02-27T04:24:52.968Z,21.37
2017-02-27T04:25:52.994Z,21.37
2017-02-27T04:26:53.418Z,21.35
2017-02-27T04:27:53.698Z,21.4
2017-02-27T04:28:53.481Z,21.38
2017-02-27T04:29:53.501Z,21.37
2017-02-27T04:30:53.524Z,21.37
2017-02-27T04:31:53.162Z,21.31
2017-02-27T04:32:53.448Z,21.4
2017-02-27T04:33:53.624Z,21.4
2017-02-27T04:34:53.244Z,21.42
2017-02-27T04:35:53.670Z,21.42
2017-02-27T04:36:53.694Z,21.38
2017-02-27T04:37:53.579Z,21.38
2017-02-27T04:38:52.951Z,21.32
2017-02-27T04:39:52.990Z,21.37
2017-02-27T04:40:53.795Z,21.32
2017-02-27T04:41:53.434Z,21.31
2017-02-27T04:42:54.116Z,21.4
2017-02-27T04:43:53.891Z,21.4
2017-02-27T04:44:53.912Z,21.35
2017-02-27T04:45:53.929Z,21.37
2017-02-27T04:46:53.966Z,21.31
2017-02-27T04:47:53.234Z,21.4
2017-02-27T04:48:54.032Z,21.31
2017-02-27T04:49:53.655Z,21.28
2017-02-27T04:50:53.289Z,21.35
2017-02-27T04:51:53.718Z,21.31
2017-02-27T04:52:53.338Z,21.31
2017-02-27T04:53:54.167Z,21.31
2017-02-27T04:54:53.803Z,21.35
2017-02-27T04:55:54.208Z,21.29
2017-02-27T04:56:53.445Z,21.34
2017-02-27T04:57:53.873Z,21.29
2017-02-27T04:58:53.902Z,21.24
2017-02-27T04:59:54.327Z,21.32
2017-02-27T05:00:53.576Z,21.37
2017-02-27T05:01:53.976Z,21.21
2017-02-27T05:02:54.401Z,21.37
2017-02-27T05:03:54.453Z,21.22
2017-02-27T05:04:54.455Z,21.25
2017-02-27T05:05:54.492Z,21.38
2017-02-27T05:06:54.516Z,21.34
2017-02-27T05:07:54.143Z,21.42
2017-02-27T05:08:54.566Z,21.24
2017-02-27T05:09:54.194Z,21.19
2017-02-27T05:10:54.619Z,21.24
2017-02-27T05:11:54.257Z,21.24
2017-02-27T05:12:54.668Z,21.24
2017-02-27T05:13:54.697Z,21.24
2017-02-27T05:14:54.738Z,21.35
2017-02-27T05:15:54.361Z,21.24
2017-02-27T05:16:54.394Z,21.31
2017-02-27T05:17:54.032Z,21.31
2017-02-27T05:18:54.688Z,21.24
2017-02-27T05:19:54.488Z,21.24
2017-02-27T05:20:54.102Z,21.22
2017-02-27T05:21:54.131Z,21.24
2017-02-27T05:22:54.951Z,21.24
2017-02-27T05:23:54.860Z,21.32
2017-02-27T05:24:54.625Z,21.28
2017-02-27T05:25:55.029Z,21.32
2017-02-27T05:26:54.683Z,21.34
2017-02-27T05:27:55.091Z,21.37
2017-02-27T05:28:54.979Z,21.32
2017-02-27T05:29:54.745Z,21.34
2017-02-27T05:30:54.785Z,21.34
2017-02-27T05:31:54.402Z,21.42
2017-02-27T05:32:55.234Z,21.35
2017-02-27T05:33:55.103Z,21.32
2017-02-27T05:34:55.280Z,21.32
2017-02-27T05:35:54.901Z,21.4
2017-02-27T05:36:55.329Z,21.35
2017-02-27T05:37:55.370Z,21.43
2017-02-27T05:38:55.249Z,21.37
2017-02-27T05:39:54.616Z,21.35
2017-02-27T05:40:54.644Z,21.35
2017-02-27T05:41:55.473Z,21.38
2017-02-27T05:42:55.093Z,21.38
2017-02-27T05:43:55.002Z,21.37
2017-02-27T05:44:54.760Z,21.46
2017-02-27T05:45:55.173Z,21.38
2017-02-27T05:46:54.817Z,21.43
2017-02-27T05:47:55.633Z,21.44
2017-02-27T05:48:55.514Z,21.46
2017-02-27T05:49:55.687Z,21.38
2017-02-27T05:50:55.712Z,21.53
2017-02-27T05:51:55.341Z,21.49
2017-02-27T05:52:55.765Z,21.47
2017-02-27T05:53:55.654Z,21.49
2017-02-27T05:54:55.427Z,21.46
2017-02-27T05:55:55.448Z,21.5
2017-02-27T05:56:55.477Z,21.58
2017-02-27T05:57:55.530Z,21.49
2017-02-27T05:58:56.187Z,21.58
2017-02-27T05:59:55.166Z,21.58
2017-02-27T06:00:55.189Z,21.65
2017-02-27T06:01:55.625Z,21.61
2017-02-27T06:02:55.657Z,21.59
2017-02-27T06:03:55.915Z,21.62
2017-02-27T06:04:55.706Z,21.65
2017-02-27T06:05:55.724Z,21.62
2017-02-27T06:06:55.356Z,21.53
2017-02-27T06:07:55.777Z,21.74
2017-02-27T06:08:56.057Z,21.64
2017-02-27T06:09:55.839Z,21.69
2017-02-27T06:10:56.255Z,21.69
2017-02-27T06:11:56.293Z,21.72
2017-02-27T06:12:56.301Z,21.69
2017-02-27T06:13:56.193Z,21.72
2017-02-27T06:14:55.983Z,21.72
2017-02-27T06:15:56.016Z,21.72
2017-02-27T06:16:56.417Z,21.69
2017-02-27T06:17:56.453Z,21.75
2017-02-27T06:18:56.726Z,21.75
2017-02-27T06:19:56.115Z,21.74
2017-02-27T06:20:56.536Z,21.71
2017-02-27T06:21:55.760Z,21.74
2017-02-27T06:22:55.793Z,21.68
2017-02-27T06:23:56.477Z,21.8
2017-02-27T06:24:56.240Z,21.69
2017-02-27T06:25:56.287Z,21.72
2017-02-27T06:26:56.692Z,21.75
2017-02-27T06:27:56.325Z,21.72
2017-02-27T06:28:56.213Z,21.79
2017-02-27T06:29:56.389Z,21.8
2017-02-27T06:30:56.800Z,21.86
2017-02-27T06:31:56.444Z,21.83
2017-02-27T06:32:56.865Z,21.8
2017-02-27T06:33:56.741Z,21.9
2017-02-27T06:34:56.909Z,21.9
2017-02-27T06:35:56.931Z,21.88
2017-02-27T06:36:56.570Z,21.86
2017-02-27T06:37:56.596Z,21.84
2017-02-27T06:38:57.290Z,21.88
2017-02-27T06:39:57.058Z,21.86
2017-02-27T06:40:56.679Z,21.88
2017-02-27T06:41:56.721Z,21.86
2017-02-27T06:42:56.729Z,21.88
2017-02-27T06:43:56.767Z,21.92
2017-02-27T06:44:56.403Z,21.88
2017-02-27T06:45:57.209Z,21.83
2017-02-27T06:46:57.244Z,21.79
2017-02-27T06:47:57.269Z,21.86
2017-02-27T06:48:57.318Z,21.96
2017-02-27T06:49:57.322Z,21.82
2017-02-27T06:50:57.379Z,21.88
2017-02-27T06:51:57.375Z,21.84
2017-02-27T06:52:57.013Z,21.92
2017-02-27T06:53:57.437Z,21.9
2017-02-27T06:54:57.462Z,21.94
2017-02-27T06:55:56.707Z,21.91
2017-02-27T06:56:57.520Z,21.99
2017-02-27T06:57:57.553Z,22.02
2017-02-27T06:58:56.793Z,21.99
2017-02-27T06:59:57.868Z,21.92
2017-02-27T07:00:56.843Z,22.03
2017-02-27T07:01:57.260Z,22.05
2017-02-27T07:02:57.289Z,22.02
2017-02-27T07:03:56.917Z,22.15
2017-02-27T07:04:57.597Z,22.09
2017-02-27T07:05:57.367Z,22
2017-02-27T07:06:57.405Z,22.07
2017-02-27T07:07:57.837Z,22.03
2017-02-27T07:08:57.453Z,22.06
2017-02-27T07:09:57.729Z,22.05
2017-02-27T07:10:57.538Z,22.14
2017-02-27T07:11:57.148Z,22.09
2017-02-27T07:12:57.965Z,22.05
2017-02-27T07:13:57.589Z,22.12
2017-02-27T07:14:58.267Z,22.09
2017-02-27T07:15:57.651Z,22.06
2017-02-27T07:16:57.276Z,22.14
2017-02-27T07:17:57.697Z,22.09
2017-02-27T07:18:57.729Z,22.09
2017-02-27T07:19:58.406Z,22.14
2017-02-27T07:20:58.183Z,22.15
2017-02-27T07:21:58.214Z,22.17
2017-02-27T07:22:58.248Z,22.14
2017-02-27T07:23:57.469Z,22.12
2017-02-27T07:24:58.538Z,22.15
2017-02-27T07:25:58.322Z,22.09
2017-02-27T07:26:57.950Z,22.17
2017-02-27T07:27:57.580Z,22.12
2017-02-27T07:28:57.990Z,22.18
2017-02-27T07:29:58.285Z,22.12
2017-02-27T07:30:58.463Z,22.14
2017-02-27T07:31:58.488Z,22.07
2017-02-27T07:32:57.732Z,22.07
2017-02-27T07:33:58.553Z,22.12
2017-02-27T07:34:58.717Z,22.14
2017-02-27T07:35:58.197Z,22.15
2017-02-27T07:36:58.221Z,22.12
2017-02-27T07:37:58.647Z,22.14
2017-02-27T07:38:58.268Z,22.14
2017-02-27T07:39:58.810Z,22.14
2017-02-27T07:40:57.954Z,22.15
2017-02-27T07:41:58.764Z,22.14
2017-02-27T07:42:58.394Z,22.17
2017-02-27T07:43:58.411Z,22.12
2017-02-27T07:44:58.457Z,22.15
2017-02-27T07:45:58.470Z,22.22
2017-02-27T07:46:58.523Z,22.27
2017-02-27T07:47:58.153Z,22.2
2017-02-27T07:48:58.552Z,22.22
2017-02-27T07:49:58.601Z,22.21
2017-02-27T07:50:58.607Z,22.3
2017-02-27T07:51:58.258Z,22.22
2017-02-27T07:52:59.083Z,22.25
2017-02-27T07:53:58.682Z,22.25
2017-02-27T07:54:59.112Z,22.21
2017-02-27T07:55:58.746Z,22.22
2017-02-27T07:56:59.191Z,22.21
2017-02-27T07:57:58.815Z,22.21
2017-02-27T07:58:58.444Z,22.24
2017-02-27T07:59:59.256Z,22.2
2017-02-27T08:00:58.886Z,22.21
2017-02-27T08:01:58.919Z,22.2
2017-02-27T08:02:58.539Z,22.27
2017-02-27T08:03:58.976Z,22.25
2017-02-27T08:04:58.997Z,22.24
2017-02-27T08:05:59.029Z,22.17
2017-02-27T08:06:58.671Z,22.15
2017-02-27T08:07:59.482Z,22.21
2017-02-27T08:08:59.501Z,22.2
2017-02-27T08:09:59.525Z,22.1
2017-02-27T08:10:59.598Z,22.18
2017-02-27T08:11:58.795Z,22.24
2017-02-27T08:12:59.227Z,22.27
2017-02-27T08:13:58.867Z,22.18
2017-02-27T08:14:59.660Z,22.18
2017-02-27T08:15:59.305Z,22.17
2017-02-27T08:16:59.330Z,22.18
2017-02-27T08:17:59.771Z,22.14
2017-02-27T08:18:59.375Z,22.24
2017-02-27T08:19:59.412Z,22.22
2017-02-27T08:20:59.049Z,22.2
2017-02-27T08:21:59.862Z,22.18
2017-02-27T08:22:59.495Z,22.15
2017-02-27T08:23:59.924Z,22.2
2017-02-27T08:24:59.936Z,22.2
2017-02-27T08:25:59.576Z,22.17
2017-02-27T08:26:59.613Z,22.18
2017-02-27T08:27:59.630Z,22.18
2017-02-27T08:28:59.655Z,22.18
2017-02-27T08:29:59.704Z,22.15
2017-02-27T08:31:00.220Z,22.15
2017-02-27T08:31:59.381Z,22.18
2017-02-27T08:33:00.170Z,22.21
2017-02-27T08:33:59.811Z,22.2
2017-02-27T08:35:00.220Z,22.18
2017-02-27T08:36:00.529Z,22.22
2017-02-27T08:37:00.285Z,22.24
2017-02-27T08:37:59.902Z,22.24
2017-02-27T08:38:59.939Z,22.31
2017-02-27T08:40:00.364Z,22.35
2017-02-27T08:41:00.656Z,22.37
2017-02-27T08:42:00.436Z,22.43
2017-02-27T08:43:00.046Z,22.61
2017-02-27T08:44:00.472Z,22.65
2017-02-27T08:44:59.715Z,22.88
2017-02-27T08:46:00.384Z,23.17
2017-02-27T08:47:00.161Z,23.54
2017-02-27T08:47:59.786Z,23.84
2017-02-27T08:48:59.838Z,23.94
2017-02-27T08:49:59.847Z,24.34
2017-02-27T08:51:00.131Z,24.49
2017-02-27T08:52:00.303Z,24.8
2017-02-27T08:53:00.733Z,25.05
2017-02-27T08:53:59.962Z,25.08
2017-02-27T08:55:00.787Z,25.3
2017-02-27T08:56:00.663Z,25.27
2017-02-27T08:57:00.840Z,25.24
2017-02-27T08:58:00.089Z,25.1
2017-02-27T08:59:00.110Z,24.91
2017-02-27T09:00:00.534Z,25.02
2017-02-27T09:01:00.412Z,25.18
2017-02-27T09:02:00.976Z,25.17
2017-02-27T09:03:01.005Z,25.14
2017-02-27T09:04:01.042Z,25.15
2017-02-27T09:05:00.271Z,24.95
2017-02-27T09:06:00.948Z,24.85
2017-02-27T09:07:00.332Z,24.69
2017-02-27T09:08:00.757Z,24.57
2017-02-27T09:09:00.785Z,24.4
2017-02-27T09:10:01.201Z,24.34
2017-02-27T09:11:00.698Z,24.21
2017-02-27T09:12:01.259Z,24.08
2017-02-27T09:13:00.889Z,24
2017-02-27T09:14:00.545Z,23.91
2017-02-27T09:15:00.550Z,23.83
2017-02-27T09:16:01.239Z,23.85
2017-02-27T09:17:01.020Z,23.73
2017-02-27T09:18:01.440Z,23.72
2017-02-27T09:19:01.485Z,23.6
2017-02-27T09:20:01.491Z,23.58
2017-02-27T09:21:00.975Z,23.57
2017-02-27T09:22:01.149Z,23.5
2017-02-27T09:23:01.572Z,23.48
2017-02-27T09:24:01.617Z,23.46
2017-02-27T09:25:01.632Z,23.4
2017-02-27T09:26:01.372Z,23.38
2017-02-27T09:27:01.307Z,23.23
2017-02-27T09:28:00.934Z,23.23
2017-02-27T09:29:01.765Z,23.19
2017-02-27T09:30:01.782Z,23.19
2017-02-27T09:31:01.654Z,23.19
2017-02-27T09:32:01.831Z,23.16
2017-02-27T09:33:01.503Z,23.13
2017-02-27T09:34:01.488Z,23.1
2017-02-27T09:35:01.537Z,23.02
2017-02-27T09:36:01.249Z,23.05
2017-02-27T09:37:01.570Z,23
2017-02-27T09:38:01.987Z,23.04
2017-02-27T09:39:02.036Z,23.05
2017-02-27T09:40:01.260Z,22.98
2017-02-27T09:41:02.338Z,23
2017-02-27T09:42:02.118Z,22.83
2017-02-27T09:43:01.743Z,22.9
2017-02-27T09:44:02.176Z,22.94
2017-02-27T09:45:01.815Z,22.91
2017-02-27T09:46:02.110Z,22.91
2017-02-27T09:47:01.482Z,22.9
2017-02-27T09:48:01.887Z,22.9
2017-02-27T09:49:01.512Z,22.85
2017-02-27T09:50:01.945Z,22.83
2017-02-27T09:51:02.237Z,22.92
2017-02-27T09:52:02.394Z,22.86
2017-02-27T09:53:02.431Z,22.88
2017-02-27T09:54:02.446Z,22.86
2017-02-27T09:55:02.492Z,22.88
2017-02-27T09:56:02.257Z,22.8
2017-02-27T09:57:02.546Z,22.86
2017-02-27T09:58:02.176Z,22.86
2017-02-27T09:59:01.804Z,22.88
2017-02-27T10:00:02.218Z,22.86
2017-02-27T10:01:02.353Z,22.88
2017-02-27T10:02:02.297Z,22.97
2017-02-27T10:03:02.715Z,23.02
2017-02-27T10:04:01.947Z,23.04
2017-02-27T10:05:02.392Z,23.09
2017-02-27T10:06:02.651Z,23.05
2017-02-27T10:07:02.030Z,23.09
2017-02-27T10:08:02.858Z,23.01
2017-02-27T10:09:02.471Z,23.07
2017-02-27T10:10:02.908Z,23.05
2017-02-27T10:11:02.427Z,23.07
2017-02-27T10:12:02.557Z,23.07
2017-02-27T10:13:02.590Z,23.07
2017-02-27T10:14:02.618Z,23.07
2017-02-27T10:15:03.034Z,23.05
2017-02-27T10:16:02.993Z,23.04
2017-02-27T10:17:03.102Z,23.16
2017-02-27T10:18:02.338Z,23.17
2017-02-27T10:19:02.770Z,23.27
2017-02-27T10:20:02.791Z,23.27
2017-02-27T10:21:02.420Z,23.36
2017-02-27T10:22:03.253Z,23.42
2017-02-27T10:23:02.495Z,23.39
2017-02-27T10:24:02.913Z,23.43
2017-02-27T10:25:02.944Z,23.48
2017-02-27T10:26:02.951Z,23.47
2017-02-27T10:27:02.585Z,23.53
2017-02-27T10:28:03.441Z,23.6
2017-02-27T10:29:02.646Z,23.58
2017-02-27T10:30:02.695Z,23.66
2017-02-27T10:31:02.703Z,23.55
2017-02-27T10:32:03.125Z,23.55
2017-02-27T10:33:02.766Z,23.54
2017-02-27T10:34:03.185Z,23.48
2017-02-27T10:35:03.206Z,23.48
2017-02-27T10:36:03.634Z,23.47
2017-02-27T10:37:03.269Z,23.47
2017-02-27T10:38:03.719Z,23.5
2017-02-27T10:39:03.323Z,23.51
2017-02-27T10:40:03.761Z,23.47
2017-02-27T10:41:03.783Z,23.48
2017-02-27T10:42:03.411Z,23.46
2017-02-27T10:43:03.836Z,23.43
2017-02-27T10:44:03.485Z,23.43
2017-02-27T10:45:03.098Z,23.46
2017-02-27T10:46:03.915Z,23.47
2017-02-27T10:47:03.564Z,23.5
2017-02-27T10:48:03.581Z,23.39
2017-02-27T10:49:03.223Z,23.46
2017-02-27T10:50:04.030Z,23.39
2017-02-27T10:51:04.059Z,23.39
2017-02-27T10:52:04.096Z,23.48
2017-02-27T10:53:03.725Z,23.47
2017-02-27T10:54:03.767Z,23.48
2017-02-27T10:55:03.814Z,23.46
2017-02-27T10:56:03.449Z,23.51
2017-02-27T10:57:03.859Z,23.51
2017-02-27T10:58:03.480Z,23.55
2017-02-27T10:59:03.493Z,23.54
2017-02-27T11:00:03.924Z,23.55
2017-02-27T11:01:03.977Z,23.55
2017-02-27T11:02:03.595Z,23.55
2017-02-27T11:03:03.616Z,23.55
2017-02-27T11:04:04.437Z,23.61
2017-02-27T11:05:04.066Z,23.6
2017-02-27T11:06:04.095Z,23.6
2017-02-27T11:07:04.134Z,23.61
2017-02-27T11:08:04.548Z,23.58
2017-02-27T11:09:04.585Z,23.55
2017-02-27T11:10:04.605Z,23.55
2017-02-27T11:11:04.646Z,23.65
2017-02-27T11:12:04.683Z,23.6
2017-02-27T11:13:03.939Z,23.65
2017-02-27T11:14:04.720Z,23.57
2017-02-27T11:15:04.762Z,23.57
2017-02-27T11:16:04.786Z,23.5
2017-02-27T11:17:04.422Z,23.53
2017-02-27T11:18:04.843Z,23.58
2017-02-27T11:19:04.080Z,23.53
2017-02-27T11:20:04.497Z,23.4
2017-02-27T11:21:04.929Z,23.53
2017-02-27T11:22:04.943Z,23.46
2017-02-27T11:23:04.992Z,23.48
2017-02-27T11:24:05.004Z,23.42
2017-02-27T11:25:05.033Z,23.39
2017-02-27T11:26:04.678Z,23.36
2017-02-27T11:27:04.695Z,23.35
2017-02-27T11:28:05.143Z,23.32
2017-02-27T11:29:05.152Z,23.33
2017-02-27T11:30:04.795Z,23.32
2017-02-27T11:31:05.210Z,23.28
2017-02-27T11:32:04.442Z,23.31
2017-02-27T11:33:05.279Z,23.27
2017-02-27T11:34:04.899Z,23.25
2017-02-27T11:35:04.925Z,23.19
2017-02-27T11:36:04.570Z,23.2
2017-02-27T11:37:05.378Z,23.17
2017-02-27T11:38:05.415Z,23.17
2017-02-27T11:39:05.440Z,23.16
2017-02-27T11:40:05.064Z,23.09
2017-02-27T11:41:05.096Z,23.09
2017-02-27T11:42:05.129Z,23.05
2017-02-27T11:43:05.154Z,23.01
2017-02-27T11:44:04.787Z,23.05
2017-02-27T11:45:04.812Z,22.97
2017-02-27T11:46:04.848Z,23.02
2017-02-27T11:47:05.273Z,22.94
2017-02-27T11:48:05.305Z,22.97
2017-02-27T11:49:05.323Z,22.91
2017-02-27T11:50:05.748Z,22.92
2017-02-27T11:51:05.380Z,22.88
2017-02-27T11:52:05.438Z,22.8
2017-02-27T11:53:05.847Z,22.82
2017-02-27T11:54:05.072Z,22.88
2017-02-27T11:55:05.887Z,22.79
2017-02-27T11:56:05.920Z,22.76
2017-02-27T11:57:05.565Z,22.76
2017-02-27T11:58:05.989Z,22.79
2017-02-27T11:59:06.002Z,22.7
2017-02-27T12:00:06.031Z,22.67
2017-02-27T12:01:06.068Z,22.75
2017-02-27T12:02:06.209Z,22.65
2017-02-27T12:03:05.722Z,22.65
2017-02-27T12:04:05.751Z,22.7
2017-02-27T12:05:05.781Z,22.72
2017-02-27T12:06:06.204Z,22.76
2017-02-27T12:07:06.477Z,22.67
2017-02-27T12:08:05.461Z,22.64
2017-02-27T12:09:06.298Z,22.62
2017-02-27T12:10:06.331Z,22.61
2017-02-27T12:11:06.342Z,22.61
2017-02-27T12:12:05.848Z,22.62
2017-02-27T12:13:06.025Z,22.61
2017-02-27T12:14:05.640Z,22.64
2017-02-27T12:15:06.458Z,22.62
2017-02-27T12:16:06.091Z,22.6
2017-02-27T12:17:06.772Z,22.67
2017-02-27T12:18:06.157Z,22.58
2017-02-27T12:19:06.186Z,22.47
2017-02-27T12:20:06.615Z,22.47
2017-02-27T12:21:06.243Z,22.52
2017-02-27T12:22:06.506Z,22.47
2017-02-27T12:23:06.685Z,22.49
2017-02-27T12:24:06.337Z,22.54
2017-02-27T12:25:06.745Z,22.51
2017-02-27T12:26:06.370Z,22.52
2017-02-27T12:27:07.052Z,22.52
2017-02-27T12:28:06.820Z,22.46
2017-02-27T12:29:06.453Z,22.52
2017-02-27T12:30:06.890Z,22.52
2017-02-27T12:31:06.905Z,22.54
2017-02-27T12:32:07.181Z,22.57
2017-02-27T12:33:06.564Z,22.51
2017-02-27T12:34:06.610Z,22.52
2017-02-27T12:35:07.023Z,22.52
2017-02-27T12:36:06.671Z,22.49
2017-02-27T12:37:06.931Z,22.51
2017-02-27T12:38:07.097Z,22.52
2017-02-27T12:39:07.145Z,22.54
2017-02-27T12:40:07.172Z,22.51
2017-02-27T12:41:06.401Z,22.57
2017-02-27T12:42:07.078Z,22.46
2017-02-27T12:43:06.843Z,22.55
2017-02-27T12:44:07.276Z,22.61
2017-02-27T12:45:07.297Z,22.62
2017-02-27T12:46:06.932Z,22.57
2017-02-27T12:47:06.814Z,22.64
2017-02-27T12:48:06.982Z,22.65
2017-02-27T12:49:07.418Z,22.68
2017-02-27T12:50:07.437Z,22.64
2017-02-27T12:51:07.469Z,22.68
2017-02-27T12:52:07.758Z,22.62
2017-02-27T12:53:07.135Z,22.62
2017-02-27T12:54:07.168Z,22.61
2017-02-27T12:55:07.188Z,22.61
2017-02-27T12:56:07.217Z,22.62
2017-02-27T12:57:07.498Z,22.58
2017-02-27T12:58:07.265Z,22.62
2017-02-27T12:59:06.914Z,22.68
2017-02-27T13:00:07.316Z,22.68
2017-02-27T13:01:07.365Z,22.6
2017-02-27T13:02:07.237Z,22.61
2017-02-27T13:03:07.800Z,22.64
2017-02-27T13:04:07.855Z,22.64
2017-02-27T13:05:07.474Z,22.58
2017-02-27T13:06:07.495Z,22.55
2017-02-27T13:07:08.175Z,22.72
2017-02-27T13:08:07.962Z,22.73
2017-02-27T13:09:07.594Z,22.62
2017-02-27T13:10:07.615Z,22.7
2017-02-27T13:11:07.640Z,22.75
2017-02-27T13:12:07.273Z,22.64